Terminal Aerodrome Forecast
Issued by NWS Wakefield, VA

Home | Current Version | Previous Version | Text Only | Print | Product List | Glossary On
Versions: 1 2 3 4 5 6 7 8 9 10 11 12 13 14 15 16
000
FTUS41 KAKQ 260540
TAFSBY
TAF
KSBY 260540Z 2606/2706 19007KT P6SM SKC
     FM261500 20011G18KT P6SM SCT050 BKN250
     FM262300 19009KT P6SM BKN200=

USA.gov is the U.S. government's official web portal to all federal, state and local government web resources and services.